Terminal Aerodrome Forecast
Issued by NWS Wakefield, VA

Home | Current Version | Previous Version | Text Only | Print | Product List | Glossary On
Versions: 1 2 3 4 5 6 7 8 9 10 11 12 13 14
000
FTUS41 KAKQ 241700
TAFRIC
TAF
KRIC 241740Z 2418/2518 21020G30KT P6SM SCT030
     FM242200 21012KT P6SM SCT030
     FM250200 20006KT P6SM SCT015 BKN250
     FM251200 35005KT P6SM SCT015 BKN120=

USA.gov is the U.S. government's official web portal to all federal, state and local government web resources and services.